sensor_id;sensor_type;location;lat;lon;timestamp;temperature;humidity
36586;DHT22;22591;48.314;11.562;2023-05-16T00:01:40;11.20;99.90
36586;DHT22;22591;48.314;11.562;2023-05-16T00:04:05;11.20;99.90
36586;DHT22;22591;48.314;11.562;2023-05-16T00:06:31;11.20;99.90
36586;DHT22;22591;48.314;11.562;2023-05-16T00:08:58;11.20;99.90
36586;DHT22;22591;48.314;11.562;2023-05-16T00:11:23;11.10;99.90
36586;DHT22;22591;48.314;11.562;2023-05-16T00:13:49;11.10;99.90
36586;DHT22;22591;48.314;11.562;2023-05-16T00:16:15;11.10;99.90
36586;DHT22;22591;48.314;11.562;2023-05-16T00:18:41;11.00;99.90
36586;DHT22;22591;48.314;11.562;2023-05-16T00:21:09;11.00;99.90
36586;DHT22;22591;48.314;11.562;2023-05-16T00:23:35;11.00;99.90
36586;DHT22;22591;48.314;11.562;2023-05-16T00:26:01;11.00;99.90
36586;DHT22;22591;48.314;11.562;2023-05-16T00:28:26;11.00;99.90
36586;DHT22;22591;48.314;11.562;2023-05-16T00:30:52;11.00;99.90
36586;DHT22;22591;48.314;11.562;2023-05-16T00:33:17;11.00;99.90
36586;DHT22;22591;48.314;11.562;2023-05-16T00:35:43;11.00;99.90
36586;DHT22;22591;48.314;11.562;2023-05-16T00:38:09;10.90;99.90
36586;DHT22;22591;48.314;11.562;2023-05-16T00:40:34;11.00;99.90
36586;DHT22;22591;48.314;11.562;2023-05-16T00:43:00;11.00;99.90
36586;DHT22;22591;48.314;11.562;2023-05-16T00:45:25;11.10;99.90
36586;DHT22;22591;48.314;11.562;2023-05-16T00:47:51;11.00;99.90
36586;DHT22;22591;48.314;11.562;2023-05-16T00:50:17;11.00;99.90
36586;DHT22;22591;48.314;11.562;2023-05-16T00:52:43;11.00;99.90
36586;DHT22;22591;48.314;11.562;2023-05-16T00:55:09;11.00;99.90
36586;DHT22;22591;48.314;11.562;2023-05-16T00:57:36;11.00;99.90
36586;DHT22;22591;48.314;11.562;2023-05-16T01:00:04;11.00;99.90
36586;DHT22;22591;48.314;11.562;2023-05-16T01:02:31;11.00;99.90
36586;DHT22;22591;48.314;11.562;2023-05-16T01:04:57;11.00;99.90
36586;DHT22;22591;48.314;11.562;2023-05-16T01:07:22;10.90;99.90
36586;DHT22;22591;48.314;11.562;2023-05-16T01:09:48;11.00;99.90
36586;DHT22;22591;48.314;11.562;2023-05-16T01:12:23;10.90;99.90
36586;DHT22;22591;48.314;11.562;2023-05-16T01:15:07;10.90;99.90
36586;DHT22;22591;48.314;11.562;2023-05-16T01:17:56;10.90;99.90
36586;DHT22;22591;48.314;11.562;2023-05-16T01:23:06;10.80;99.90
36586;DHT22;22591;48.314;11.562;2023-05-16T01:28:28;10.60;99.90
36586;DHT22;22591;48.314;11.562;2023-05-16T01:30:54;10.60;99.90
36586;DHT22;22591;48.314;11.562;2023-05-16T01:33:20;10.60;99.90
36586;DHT22;22591;48.314;11.562;2023-05-16T01:35:59;10.60;99.90
36586;DHT22;22591;48.314;11.562;2023-05-16T01:39:04;10.60;99.90
36586;DHT22;22591;48.314;11.562;2023-05-16T01:44:25;10.60;99.90
36586;DHT22;22591;48.314;11.562;2023-05-16T01:46:56;10.60;99.90
36586;DHT22;22591;48.314;11.562;2023-05-16T01:49:34;10.50;99.90
36586;DHT22;22591;48.314;11.562;2023-05-16T01:52:04;10.50;99.90
36586;DHT22;22591;48.314;11.562;2023-05-16T01:54:31;10.50;99.90
36586;DHT22;22591;48.314;11.562;2023-05-16T01:56:58;10.40;99.90
36586;DHT22;22591;48.314;11.562;2023-05-16T01:59:25;10.40;99.90
36586;DHT22;22591;48.314;11.562;2023-05-16T02:01:56;10.30;99.90
36586;DHT22;22591;48.314;11.562;2023-05-16T02:04:22;10.30;99.90
36586;DHT22;22591;48.314;11.562;2023-05-16T02:06:49;10.20;99.90
36586;DHT22;22591;48.314;11.562;2023-05-16T02:09:15;10.20;99.90
36586;DHT22;22591;48.314;11.562;2023-05-16T02:11:40;10.10;99.90
36586;DHT22;22591;48.314;11.562;2023-05-16T02:14:06;10.10;99.90
36586;DHT22;22591;48.314;11.562;2023-05-16T02:16:32;10.10;99.90
36586;DHT22;22591;48.314;11.562;2023-05-16T02:18:58;10.10;99.90
36586;DHT22;22591;48.314;11.562;2023-05-16T02:21:23;10.10;99.90
36586;DHT22;22591;48.314;11.562;2023-05-16T02:23:49;10.10;99.90
36586;DHT22;22591;48.314;11.562;2023-05-16T02:26:15;10.10;99.90
36586;DHT22;22591;48.314;11.562;2023-05-16T02:28:40;10.10;99.90
36586;DHT22;22591;48.314;11.562;2023-05-16T02:31:06;10.00;99.90
36586;DHT22;22591;48.314;11.562;2023-05-16T02:33:31;10.00;99.90
36586;DHT22;22591;48.314;11.562;2023-05-16T02:35:57;10.10;99.90
36586;DHT22;22591;48.314;11.562;2023-05-16T02:38:22;10.10;99.90
36586;DHT22;22591;48.314;11.562;2023-05-16T02:40:48;10.10;99.90
36586;DHT22;22591;48.314;11.562;2023-05-16T02:43:14;10.10;99.90
36586;DHT22;22591;48.314;11.562;2023-05-16T02:45:40;10.10;99.90
36586;DHT22;22591;48.314;11.562;2023-05-16T02:48:05;10.10;99.90
36586;DHT22;22591;48.314;11.562;2023-05-16T02:50:32;10.10;99.90
36586;DHT22;22591;48.314;11.562;2023-05-16T02:52:57;10.10;99.90
36586;DHT22;22591;48.314;11.562;2023-05-16T02:55:24;10.10;99.90
36586;DHT22;22591;48.314;11.562;2023-05-16T02:57:50;10.00;99.90
36586;DHT22;22591;48.314;11.562;2023-05-16T03:00:16;10.10;99.90
36586;DHT22;22591;48.314;11.562;2023-05-16T03:02:42;10.00;99.90
36586;DHT22;22591;48.314;11.562;2023-05-16T03:05:09;10.10;99.90
36586;DHT22;22591;48.314;11.562;2023-05-16T03:07:35;10.10;99.90
36586;DHT22;22591;48.314;11.562;2023-05-16T03:10:02;10.10;99.90
36586;DHT22;22591;48.314;11.562;2023-05-16T03:12:27;10.10;99.90
36586;DHT22;22591;48.314;11.562;2023-05-16T03:14:53;10.10;99.90
36586;DHT22;22591;48.314;11.562;2023-05-16T03:17:18;10.10;99.90
36586;DHT22;22591;48.314;11.562;2023-05-16T03:19:44;10.10;99.90
36586;DHT22;22591;48.314;11.562;2023-05-16T03:22:10;10.10;99.90
36586;DHT22;22591;48.314;11.562;2023-05-16T03:24:35;10.10;99.90
36586;DHT22;22591;48.314;11.562;2023-05-16T03:27:01;10.10;99.90
36586;DHT22;22591;48.314;11.562;2023-05-16T03:29:29;10.10;99.90
36586;DHT22;22591;48.314;11.562;2023-05-16T03:31:55;10.10;99.90
36586;DHT22;22591;48.314;11.562;2023-05-16T03:34:21;10.10;99.90
36586;DHT22;22591;48.314;11.562;2023-05-16T03:36:49;10.10;99.90
36586;DHT22;22591;48.314;11.562;2023-05-16T03:39:15;10.10;99.90
36586;DHT22;22591;48.314;11.562;2023-05-16T03:41:41;10.10;99.90
36586;DHT22;22591;48.314;11.562;2023-05-16T03:44:07;10.10;99.90
36586;DHT22;22591;48.314;11.562;2023-05-16T03:46:32;10.00;99.90
36586;DHT22;22591;48.314;11.562;2023-05-16T03:48:59;10.10;99.90
36586;DHT22;22591;48.314;11.562;2023-05-16T03:51:24;10.00;99.90
36586;DHT22;22591;48.314;11.562;2023-05-16T03:53:50;10.10;99.90
36586;DHT22;22591;48.314;11.562;2023-05-16T03:56:15;10.10;99.90
36586;DHT22;22591;48.314;11.562;2023-05-16T03:58:41;10.00;99.90
36586;DHT22;22591;48.314;11.562;2023-05-16T04:01:07;10.10;99.90
36586;DHT22;22591;48.314;11.562;2023-05-16T04:03:32;10.10;99.90
36586;DHT22;22591;48.314;11.562;2023-05-16T04:05:58;10.10;99.90
36586;DHT22;22591;48.314;11.562;2023-05-16T04:08:23;10.10;99.90
36586;DHT22;22591;48.314;11.562;2023-05-16T04:10:50;10.10;99.90
36586;DHT22;22591;48.314;11.562;2023-05-16T04:13:16;10.10;99.90
36586;DHT22;22591;48.314;11.562;2023-05-16T04:15:42;10.20;99.90
36586;DHT22;22591;48.314;11.562;2023-05-16T04:18:08;10.20;99.90
36586;DHT22;22591;48.314;11.562;2023-05-16T04:20:34;10.20;99.90
36586;DHT22;22591;48.314;11.562;2023-05-16T04:23:00;10.20;99.90
36586;DHT22;22591;48.314;11.562;2023-05-16T04:25:26;10.30;99.90
36586;DHT22;22591;48.314;11.562;2023-05-16T04:27:51;10.30;99.90
36586;DHT22;22591;48.314;11.562;2023-05-16T04:30:17;10.30;99.90
36586;DHT22;22591;48.314;11.562;2023-05-16T04:32:43;10.40;99.90
36586;DHT22;22591;48.314;11.562;2023-05-16T04:35:09;10.40;99.90
36586;DHT22;22591;48.314;11.562;2023-05-16T04:37:35;10.50;99.90
36586;DHT22;22591;48.314;11.562;2023-05-16T04:40:01;10.50;99.90
36586;DHT22;22591;48.314;11.562;2023-05-16T04:42:26;10.50;99.90
36586;DHT22;22591;48.314;11.562;2023-05-16T04:44:52;10.60;99.90
36586;DHT22;22591;48.314;11.562;2023-05-16T04:47:18;10.60;99.90
36586;DHT22;22591;48.314;11.562;2023-05-16T04:49:44;10.60;99.90
36586;DHT22;22591;48.314;11.562;2023-05-16T04:52:09;10.60;99.90
36586;DHT22;22591;48.314;11.562;2023-05-16T04:54:37;10.50;99.90
36586;DHT22;22591;48.314;11.562;2023-05-16T04:57:03;10.60;99.90
36586;DHT22;22591;48.314;11.562;2023-05-16T04:59:29;10.60;99.90
36586;DHT22;22591;48.314;11.562;2023-05-16T05:01:54;10.70;99.90
36586;DHT22;22591;48.314;11.562;2023-05-16T05:04:20;10.60;99.90
36586;DHT22;22591;48.314;11.562;2023-05-16T05:06:47;10.70;99.90
36586;DHT22;22591;48.314;11.562;2023-05-16T05:09:12;10.80;99.90
36586;DHT22;22591;48.314;11.562;2023-05-16T05:11:38;10.90;99.90
36586;DHT22;22591;48.314;11.562;2023-05-16T05:14:03;11.00;99.90
36586;DHT22;22591;48.314;11.562;2023-05-16T05:16:29;11.10;99.90
36586;DHT22;22591;48.314;11.562;2023-05-16T05:18:54;11.20;99.90
36586;DHT22;22591;48.314;11.562;2023-05-16T05:21:20;11.40;99.90
36586;DHT22;22591;48.314;11.562;2023-05-16T05:23:46;11.50;99.90
36586;DHT22;22591;48.314;11.562;2023-05-16T05:26:14;11.60;99.90
36586;DHT22;22591;48.314;11.562;2023-05-16T05:28:39;11.80;99.90
36586;DHT22;22591;48.314;11.562;2023-05-16T05:31:05;11.90;99.90
36586;DHT22;22591;48.314;11.562;2023-05-16T05:33:32;12.00;99.90
36586;DHT22;22591;48.314;11.562;2023-05-16T05:35:58;12.00;99.90
36586;DHT22;22591;48.314;11.562;2023-05-16T05:38:23;12.10;99.90
36586;DHT22;22591;48.314;11.562;2023-05-16T05:40:49;12.00;99.90
36586;DHT22;22591;48.314;11.562;2023-05-16T05:43:15;12.00;99.90
36586;DHT22;22591;48.314;11.562;2023-05-16T05:45:41;11.90;99.90
36586;DHT22;22591;48.314;11.562;2023-05-16T05:48:06;11.80;99.90
36586;DHT22;22591;48.314;11.562;2023-05-16T05:50:33;11.80;99.90
36586;DHT22;22591;48.314;11.562;2023-05-16T05:52:58;11.80;99.90
36586;DHT22;22591;48.314;11.562;2023-05-16T05:55:24;11.90;99.90
36586;DHT22;22591;48.314;11.562;2023-05-16T05:57:50;12.00;99.90
36586;DHT22;22591;48.314;11.562;2023-05-16T06:00:15;12.10;99.90
36586;DHT22;22591;48.314;11.562;2023-05-16T06:02:41;12.20;99.90
36586;DHT22;22591;48.314;11.562;2023-05-16T06:05:07;12.20;99.90
36586;DHT22;22591;48.314;11.562;2023-05-16T06:07:33;12.10;99.90
36586;DHT22;22591;48.314;11.562;2023-05-16T06:09:58;12.10;99.90
36586;DHT22;22591;48.314;11.562;2023-05-16T06:12:28;12.30;99.90
36586;DHT22;22591;48.314;11.562;2023-05-16T06:14:54;12.40;99.90
36586;DHT22;22591;48.314;11.562;2023-05-16T06:17:20;12.70;99.90
36586;DHT22;22591;48.314;11.562;2023-05-16T06:19:45;13.20;99.90
36586;DHT22;22591;48.314;11.562;2023-05-16T06:22:11;13.60;99.90
36586;DHT22;22591;48.314;11.562;2023-05-16T06:24:36;14.00;99.90
36586;DHT22;22591;48.314;11.562;2023-05-16T06:27:02;14.10;99.90
36586;DHT22;22591;48.314;11.562;2023-05-16T06:29:28;14.10;99.90
36586;DHT22;22591;48.314;11.562;2023-05-16T06:31:53;14.00;99.90
36586;DHT22;22591;48.314;11.562;2023-05-16T06:34:19;13.80;99.90
36586;DHT22;22591;48.314;11.562;2023-05-16T06:36:48;13.60;99.90
36586;DHT22;22591;48.314;11.562;2023-05-16T06:39:13;13.40;99.90
36586;DHT22;22591;48.314;11.562;2023-05-16T06:41:39;13.40;99.90
36586;DHT22;22591;48.314;11.562;2023-05-16T06:44:04;13.50;99.90
36586;DHT22;22591;48.314;11.562;2023-05-16T06:46:30;13.30;99.90
36586;DHT22;22591;48.314;11.562;2023-05-16T06:48:56;13.30;99.90
36586;DHT22;22591;48.314;11.562;2023-05-16T06:51:22;13.30;99.90
36586;DHT22;22591;48.314;11.562;2023-05-16T06:53:48;13.20;99.90
36586;DHT22;22591;48.314;11.562;2023-05-16T06:56:13;13.20;99.90
36586;DHT22;22591;48.314;11.562;2023-05-16T06:58:39;13.20;99.90
36586;DHT22;22591;48.314;11.562;2023-05-16T07:01:04;13.40;99.90
36586;DHT22;22591;48.314;11.562;2023-05-16T07:03:30;13.50;99.90
36586;DHT22;22591;48.314;11.562;2023-05-16T07:05:56;13.50;99.90
36586;DHT22;22591;48.314;11.562;2023-05-16T07:08:23;13.80;99.90
36586;DHT22;22591;48.314;11.562;2023-05-16T07:10:49;13.80;99.90
36586;DHT22;22591;48.314;11.562;2023-05-16T07:13:14;13.80;99.90
36586;DHT22;22591;48.314;11.562;2023-05-16T07:15:40;13.70;99.90
36586;DHT22;22591;48.314;11.562;2023-05-16T07:18:05;13.60;99.90
36586;DHT22;22591;48.314;11.562;2023-05-16T07:20:31;13.40;99.90
36586;DHT22;22591;48.314;11.562;2023-05-16T07:22:56;13.20;99.90
36586;DHT22;22591;48.314;11.562;2023-05-16T07:25:24;13.20;99.90
36586;DHT22;22591;48.314;11.562;2023-05-16T07:27:50;13.10;99.90
36586;DHT22;22591;48.314;11.562;2023-05-16T07:30:16;13.00;99.90
36586;DHT22;22591;48.314;11.562;2023-05-16T07:32:42;13.10;99.90
36586;DHT22;22591;48.314;11.562;2023-05-16T07:35:08;13.10;99.90
36586;DHT22;22591;48.314;11.562;2023-05-16T07:37:34;13.00;99.90
36586;DHT22;22591;48.314;11.562;2023-05-16T07:40:00;12.90;99.90
36586;DHT22;22591;48.314;11.562;2023-05-16T07:42:26;12.70;99.90
36586;DHT22;22591;48.314;11.562;2023-05-16T07:44:51;12.60;99.90
36586;DHT22;22591;48.314;11.562;2023-05-16T07:47:17;12.70;99.90
36586;DHT22;22591;48.314;11.562;2023-05-16T07:49:42;12.80;99.90
36586;DHT22;22591;48.314;11.562;2023-05-16T07:52:08;12.80;99.90
36586;DHT22;22591;48.314;11.562;2023-05-16T07:54:34;12.80;99.90
36586;DHT22;22591;48.314;11.562;2023-05-16T07:57:00;12.90;99.90
36586;DHT22;22591;48.314;11.562;2023-05-16T07:59:27;12.90;99.90
36586;DHT22;22591;48.314;11.562;2023-05-16T08:01:52;13.00;99.90
36586;DHT22;22591;48.314;11.562;2023-05-16T08:04:19;13.10;99.90
36586;DHT22;22591;48.314;11.562;2023-05-16T08:06:45;12.80;99.90
36586;DHT22;22591;48.314;11.562;2023-05-16T08:09:10;12.70;99.90
36586;DHT22;22591;48.314;11.562;2023-05-16T08:11:36;12.60;99.90
36586;DHT22;22591;48.314;11.562;2023-05-16T08:14:02;12.60;99.90
36586;DHT22;22591;48.314;11.562;2023-05-16T08:16:27;12.50;99.90
36586;DHT22;22591;48.314;11.562;2023-05-16T08:18:53;12.40;99.90
36586;DHT22;22591;48.314;11.562;2023-05-16T08:21:19;12.30;99.90
36586;DHT22;22591;48.314;11.562;2023-05-16T08:23:45;12.30;99.90
36586;DHT22;22591;48.314;11.562;2023-05-16T08:26:10;12.40;99.90
36586;DHT22;22591;48.314;11.562;2023-05-16T08:28:36;12.30;99.90
36586;DHT22;22591;48.314;11.562;2023-05-16T08:31:01;12.30;99.90
36586;DHT22;22591;48.314;11.562;2023-05-16T08:33:27;12.20;99.90
36586;DHT22;22591;48.314;11.562;2023-05-16T08:35:53;12.10;99.90
36586;DHT22;22591;48.314;11.562;2023-05-16T08:38:18;12.00;99.90
36586;DHT22;22591;48.314;11.562;2023-05-16T08:40:44;12.00;99.90
36586;DHT22;22591;48.314;11.562;2023-05-16T08:43:10;12.00;99.90
36586;DHT22;22591;48.314;11.562;2023-05-16T08:45:36;12.00;99.90
36586;DHT22;22591;48.314;11.562;2023-05-16T08:48:04;12.10;99.90
36586;DHT22;22591;48.314;11.562;2023-05-16T08:50:30;12.20;99.90
36586;DHT22;22591;48.314;11.562;2023-05-16T08:52:57;12.30;99.90
36586;DHT22;22591;48.314;11.562;2023-05-16T08:55:24;12.40;99.90
36586;DHT22;22591;48.314;11.562;2023-05-16T08:57:51;12.40;99.90
36586;DHT22;22591;48.314;11.562;2023-05-16T09:00:18;12.30;99.90
36586;DHT22;22591;48.314;11.562;2023-05-16T09:02:44;12.20;99.90
36586;DHT22;22591;48.314;11.562;2023-05-16T09:05:12;12.20;99.90
36586;DHT22;22591;48.314;11.562;2023-05-16T09:07:38;12.20;99.90
36586;DHT22;22591;48.314;11.562;2023-05-16T09:10:06;12.20;99.90
36586;DHT22;22591;48.314;11.562;2023-05-16T09:12:33;12.10;99.90
36586;DHT22;22591;48.314;11.562;2023-05-16T09:15:04;12.00;99.90
36586;DHT22;22591;48.314;11.562;2023-05-16T09:17:38;12.00;99.90
36586;DHT22;22591;48.314;11.562;2023-05-16T09:20:16;12.00;99.90
36586;DHT22;22591;48.314;11.562;2023-05-16T09:22:50;12.00;99.90
36586;DHT22;22591;48.314;11.562;2023-05-16T09:25:17;12.10;99.90
36586;DHT22;22591;48.314;11.562;2023-05-16T09:27:42;12.10;99.90
36586;DHT22;22591;48.314;11.562;2023-05-16T09:30:08;12.00;99.90
36586;DHT22;22591;48.314;11.562;2023-05-16T09:32:34;12.00;99.90
36586;DHT22;22591;48.314;11.562;2023-05-16T09:35:00;11.90;99.90
36586;DHT22;22591;48.314;11.562;2023-05-16T09:37:25;11.80;99.90
36586;DHT22;22591;48.314;11.562;2023-05-16T09:39:52;11.80;99.90
36586;DHT22;22591;48.314;11.562;2023-05-16T09:42:19;11.80;99.90
36586;DHT22;22591;48.314;11.562;2023-05-16T09:44:51;11.80;99.90
36586;DHT22;22591;48.314;11.562;2023-05-16T09:47:17;11.80;99.90
36586;DHT22;22591;48.314;11.562;2023-05-16T09:49:44;12.00;99.90
36586;DHT22;22591;48.314;11.562;2023-05-16T09:52:11;12.00;99.90
36586;DHT22;22591;48.314;11.562;2023-05-16T09:54:36;12.20;99.90
36586;DHT22;22591;48.314;11.562;2023-05-16T09:57:02;12.40;99.90
36586;DHT22;22591;48.314;11.562;2023-05-16T09:59:28;12.30;99.90
36586;DHT22;22591;48.314;11.562;2023-05-16T10:01:58;12.40;99.90
36586;DHT22;22591;48.314;11.562;2023-05-16T10:04:24;12.40;99.90
36586;DHT22;22591;48.314;11.562;2023-05-16T10:06:50;12.30;99.90
36586;DHT22;22591;48.314;11.562;2023-05-16T10:09:17;12.30;99.90
36586;DHT22;22591;48.314;11.562;2023-05-16T10:11:44;12.40;99.90
36586;DHT22;22591;48.314;11.562;2023-05-16T10:14:10;12.40;99.90
36586;DHT22;22591;48.314;11.562;2023-05-16T10:16:38;12.30;99.90
36586;DHT22;22591;48.314;11.562;2023-05-16T10:19:07;12.30;99.90
36586;DHT22;22591;48.314;11.562;2023-05-16T10:21:33;12.20;99.90
36586;DHT22;22591;48.314;11.562;2023-05-16T10:24:02;12.30;99.90
36586;DHT22;22591;48.314;11.562;2023-05-16T10:26:29;12.30;99.90
36586;DHT22;22591;48.314;11.562;2023-05-16T10:28:56;12.20;99.90
36586;DHT22;22591;48.314;11.562;2023-05-16T10:31:22;12.10;99.90
36586;DHT22;22591;48.314;11.562;2023-05-16T10:33:49;12.00;99.90
36586;DHT22;22591;48.314;11.562;2023-05-16T10:36:15;12.10;99.90
36586;DHT22;22591;48.314;11.562;2023-05-16T10:38:41;12.20;99.90
36586;DHT22;22591;48.314;11.562;2023-05-16T10:41:08;12.20;99.90
36586;DHT22;22591;48.314;11.562;2023-05-16T10:43:34;12.30;99.90
36586;DHT22;22591;48.314;11.562;2023-05-16T10:46:06;12.30;99.90
36586;DHT22;22591;48.314;11.562;2023-05-16T10:48:39;12.50;99.90
36586;DHT22;22591;48.314;11.562;2023-05-16T10:54:08;12.80;99.90
36586;DHT22;22591;48.314;11.562;2023-05-16T10:56:33;13.10;99.90
36586;DHT22;22591;48.314;11.562;2023-05-16T10:58:59;13.30;99.90
36586;DHT22;22591;48.314;11.562;2023-05-16T11:01:34;13.40;99.90
36586;DHT22;22591;48.314;11.562;2023-05-16T11:04:05;13.70;99.90
36586;DHT22;22591;48.314;11.562;2023-05-16T11:06:44;13.90;99.90
36586;DHT22;22591;48.314;11.562;2023-05-16T11:17:09;14.90;99.90
36586;DHT22;22591;48.314;11.562;2023-05-16T11:19:43;15.00;99.90
36586;DHT22;22591;48.314;11.562;2023-05-16T11:22:27;15.10;99.90
36586;DHT22;22591;48.314;11.562;2023-05-16T11:24:54;15.30;99.90
36586;DHT22;22591;48.314;11.562;2023-05-16T11:29:54;15.90;99.90
36586;DHT22;22591;48.314;11.562;2023-05-16T11:32:22;16.30;99.90
36586;DHT22;22591;48.314;11.562;2023-05-16T11:34:49;16.50;99.90
36586;DHT22;22591;48.314;11.562;2023-05-16T11:37:16;16.70;99.90
36586;DHT22;22591;48.314;11.562;2023-05-16T11:39:42;17.00;99.90
36586;DHT22;22591;48.314;11.562;2023-05-16T11:42:08;17.10;99.90
36586;DHT22;22591;48.314;11.562;2023-05-16T11:44:34;17.30;99.90
36586;DHT22;22591;48.314;11.562;2023-05-16T11:47:00;17.50;99.90
36586;DHT22;22591;48.314;11.562;2023-05-16T11:49:27;17.50;99.90
36586;DHT22;22591;48.314;11.562;2023-05-16T11:51:56;17.50;99.90
36586;DHT22;22591;48.314;11.562;2023-05-16T11:54:22;17.70;99.90
36586;DHT22;22591;48.314;11.562;2023-05-16T11:56:49;17.60;99.90
36586;DHT22;22591;48.314;11.562;2023-05-16T11:59:16;17.70;99.90
36586;DHT22;22591;48.314;11.562;2023-05-16T12:01:42;17.80;99.90
36586;DHT22;22591;48.314;11.562;2023-05-16T12:04:09;17.70;99.90
36586;DHT22;22591;48.314;11.562;2023-05-16T12:06:37;17.20;99.90
36586;DHT22;22591;48.314;11.562;2023-05-16T12:09:06;17.00;99.90
36586;DHT22;22591;48.314;11.562;2023-05-16T12:11:39;17.10;99.90
36586;DHT22;22591;48.314;11.562;2023-05-16T12:14:06;16.90;99.90
36586;DHT22;22591;48.314;11.562;2023-05-16T12:16:33;16.80;99.90
36586;DHT22;22591;48.314;11.562;2023-05-16T12:18:59;16.50;99.90
36586;DHT22;22591;48.314;11.562;2023-05-16T12:21:26;16.40;99.90
36586;DHT22;22591;48.314;11.562;2023-05-16T12:23:55;16.60;99.90
36586;DHT22;22591;48.314;11.562;2023-05-16T12:26:32;16.40;99.90
36586;DHT22;22591;48.314;11.562;2023-05-16T12:28:58;16.40;99.90
36586;DHT22;22591;48.314;11.562;2023-05-16T12:31:28;16.50;99.90
36586;DHT22;22591;48.314;11.562;2023-05-16T12:33:57;16.30;99.90
36586;DHT22;22591;48.314;11.562;2023-05-16T12:36:23;16.20;99.90
36586;DHT22;22591;48.314;11.562;2023-05-16T12:38:50;16.20;99.90
36586;DHT22;22591;48.314;11.562;2023-05-16T12:41:22;16.10;99.90
36586;DHT22;22591;48.314;11.562;2023-05-16T12:43:48;16.20;99.90
36586;DHT22;22591;48.314;11.562;2023-05-16T12:46:14;16.30;99.90
36586;DHT22;22591;48.314;11.562;2023-05-16T12:48:40;16.30;99.90
36586;DHT22;22591;48.314;11.562;2023-05-16T12:51:11;16.40;99.90
36586;DHT22;22591;48.314;11.562;2023-05-16T12:53:56;16.40;99.90
36586;DHT22;22591;48.314;11.562;2023-05-16T12:56:22;16.00;99.90
36586;DHT22;22591;48.314;11.562;2023-05-16T12:58:49;15.40;99.90
36586;DHT22;22591;48.314;11.562;2023-05-16T13:01:15;14.60;99.90
36586;DHT22;22591;48.314;11.562;2023-05-16T13:03:41;13.80;99.90
36586;DHT22;22591;48.314;11.562;2023-05-16T13:06:07;13.00;99.90
36586;DHT22;22591;48.314;11.562;2023-05-16T13:08:33;12.50;99.90
36586;DHT22;22591;48.314;11.562;2023-05-16T13:10:59;12.10;99.90
36586;DHT22;22591;48.314;11.562;2023-05-16T13:13:25;11.90;99.90
36586;DHT22;22591;48.314;11.562;2023-05-16T13:15:50;11.70;99.90
36586;DHT22;22591;48.314;11.562;2023-05-16T13:18:16;11.70;99.90
36586;DHT22;22591;48.314;11.562;2023-05-16T13:20:41;11.50;99.90
36586;DHT22;22591;48.314;11.562;2023-05-16T13:23:07;11.40;99.90
36586;DHT22;22591;48.314;11.562;2023-05-16T13:25:33;11.30;99.90
36586;DHT22;22591;48.314;11.562;2023-05-16T13:27:59;11.20;99.90
36586;DHT22;22591;48.314;11.562;2023-05-16T13:30:25;11.10;99.90
36586;DHT22;22591;48.314;11.562;2023-05-16T13:32:50;11.10;99.90
36586;DHT22;22591;48.314;11.562;2023-05-16T13:35:17;11.10;99.90
36586;DHT22;22591;48.314;11.562;2023-05-16T13:37:42;11.10;99.90
36586;DHT22;22591;48.314;11.562;2023-05-16T13:40:08;11.10;99.90
36586;DHT22;22591;48.314;11.562;2023-05-16T13:42:35;11.10;99.90
36586;DHT22;22591;48.314;11.562;2023-05-16T13:45:01;11.10;99.90
36586;DHT22;22591;48.314;11.562;2023-05-16T13:47:27;11.10;99.90
36586;DHT22;22591;48.314;11.562;2023-05-16T13:49:53;11.30;99.90
36586;DHT22;22591;48.314;11.562;2023-05-16T13:52:18;11.20;99.90
36586;DHT22;22591;48.314;11.562;2023-05-16T13:54:44;11.30;99.90
36586;DHT22;22591;48.314;11.562;2023-05-16T13:57:09;11.50;99.90
36586;DHT22;22591;48.314;11.562;2023-05-16T13:59:35;11.70;99.90
36586;DHT22;22591;48.314;11.562;2023-05-16T14:02:01;11.70;99.90
36586;DHT22;22591;48.314;11.562;2023-05-16T14:04:26;11.60;99.90
36586;DHT22;22591;48.314;11.562;2023-05-16T14:06:52;11.70;99.90
36586;DHT22;22591;48.314;11.562;2023-05-16T14:09:18;11.60;99.90
36586;DHT22;22591;48.314;11.562;2023-05-16T14:11:44;11.60;99.90
36586;DHT22;22591;48.314;11.562;2023-05-16T14:14:09;11.60;99.90
36586;DHT22;22591;48.314;11.562;2023-05-16T14:16:35;11.60;99.90
36586;DHT22;22591;48.314;11.562;2023-05-16T14:19:00;11.70;99.90
36586;DHT22;22591;48.314;11.562;2023-05-16T14:21:26;11.60;99.90
36586;DHT22;22591;48.314;11.562;2023-05-16T14:23:51;11.60;99.90
36586;DHT22;22591;48.314;11.562;2023-05-16T14:26:17;11.60;99.90
36586;DHT22;22591;48.314;11.562;2023-05-16T14:28:47;11.70;99.90
36586;DHT22;22591;48.314;11.562;2023-05-16T14:31:12;11.60;99.90
36586;DHT22;22591;48.314;11.562;2023-05-16T14:33:38;11.50;99.90
36586;DHT22;22591;48.314;11.562;2023-05-16T14:36:06;11.40;99.90
36586;DHT22;22591;48.314;11.562;2023-05-16T14:38:31;11.40;99.90
36586;DHT22;22591;48.314;11.562;2023-05-16T14:40:57;11.30;99.90
36586;DHT22;22591;48.314;11.562;2023-05-16T14:43:22;11.30;99.90
36586;DHT22;22591;48.314;11.562;2023-05-16T14:45:48;11.30;99.90
36586;DHT22;22591;48.314;11.562;2023-05-16T14:48:13;11.30;99.90
36586;DHT22;22591;48.314;11.562;2023-05-16T14:50:41;11.20;99.90
36586;DHT22;22591;48.314;11.562;2023-05-16T14:53:07;11.20;99.90
36586;DHT22;22591;48.314;11.562;2023-05-16T14:55:33;11.30;99.90
36586;DHT22;22591;48.314;11.562;2023-05-16T14:57:58;11.20;99.90
36586;DHT22;22591;48.314;11.562;2023-05-16T15:00:24;11.10;99.90
36586;DHT22;22591;48.314;11.562;2023-05-16T15:02:50;11.20;99.90
36586;DHT22;22591;48.314;11.562;2023-05-16T15:05:15;11.10;99.90
36586;DHT22;22591;48.314;11.562;2023-05-16T15:07:41;11.10;99.90
36586;DHT22;22591;48.314;11.562;2023-05-16T15:10:08;11.00;99.90
36586;DHT22;22591;48.314;11.562;2023-05-16T15:12:34;11.00;99.90
36586;DHT22;22591;48.314;11.562;2023-05-16T15:15:00;11.00;99.90
36586;DHT22;22591;48.314;11.562;2023-05-16T15:17:25;11.00;99.90
36586;DHT22;22591;48.314;11.562;2023-05-16T15:19:51;11.00;99.90
36586;DHT22;22591;48.314;11.562;2023-05-16T15:22:18;11.10;99.90
36586;DHT22;22591;48.314;11.562;2023-05-16T15:24:44;11.10;99.90
36586;DHT22;22591;48.314;11.562;2023-05-16T15:27:10;11.20;99.90
36586;DHT22;22591;48.314;11.562;2023-05-16T15:29:35;11.30;99.90
36586;DHT22;22591;48.314;11.562;2023-05-16T15:32:05;11.40;99.90
36586;DHT22;22591;48.314;11.562;2023-05-16T15:34:30;11.50;99.90